sensor_id;sensor_type;location;lat;lon;timestamp;pressure;altitude;pressure_sealevel;temperature;humidity
45864;BME280;31579;52.354;16.974;2022-12-15T00:00:02;829.0;;;-146.1;100.0
45864;BME280;31579;52.354;16.974;2022-12-15T00:01:05;822.2;;;-146.1;100.0
45864;BME280;31579;52.354;16.974;2022-12-15T00:02:07;814.8;;;-146.1;100.0
45864;BME280;31579;52.354;16.974;2022-12-15T00:03:10;786.7;;;-146.1;100.0
45864;BME280;31579;52.354;16.974;2022-12-15T00:04:12;773.0;;;-146.1;100.0
45864;BME280;31579;52.354;16.974;2022-12-15T00:05:15;799.0;;;-146.1;100.0
45864;BME280;31579;52.354;16.974;2022-12-15T00:06:19;807.2;;;-146.1;100.0
45864;BME280;31579;52.354;16.974;2022-12-15T00:07:21;812.9;;;-146.1;100.0
45864;BME280;31579;52.354;16.974;2022-12-15T00:08:25;814.4;;;-146.1;100.0
45864;BME280;31579;52.354;16.974;2022-12-15T00:09:28;814.3;;;-146.1;100.0
45864;BME280;31579;52.354;16.974;2022-12-15T00:10:30;814.0;;;-146.1;100.0
45864;BME280;31579;52.354;16.974;2022-12-15T00:11:33;814.2;;;-146.1;100.0
45864;BME280;31579;52.354;16.974;2022-12-15T00:12:36;814.1;;;-146.1;100.0
45864;BME280;31579;52.354;16.974;2022-12-15T00:13:39;814.1;;;-146.1;100.0
45864;BME280;31579;52.354;16.974;2022-12-15T00:14:43;813.5;;;-146.1;100.0
45864;BME280;31579;52.354;16.974;2022-12-15T00:15:46;812.9;;;-146.1;100.0
45864;BME280;31579;52.354;16.974;2022-12-15T00:16:48;811.7;;;-146.1;100.0
45864;BME280;31579;52.354;16.974;2022-12-15T00:17:51;809.8;;;-146.1;100.0
45864;BME280;31579;52.354;16.974;2022-12-15T00:18:54;809.6;;;-146.1;100.0
45864;BME280;31579;52.354;16.974;2022-12-15T00:19:58;808.9;;;-146.1;100.0
45864;BME280;31579;52.354;16.974;2022-12-15T00:21:02;821.5;;;-146.1;100.0
45864;BME280;31579;52.354;16.974;2022-12-15T00:22:05;814.5;;;-146.1;100.0
45864;BME280;31579;52.354;16.974;2022-12-15T00:23:08;806.7;;;-146.1;100.0
45864;BME280;31579;52.354;16.974;2022-12-15T00:24:10;779.8;;;-146.1;100.0
45864;BME280;31579;52.354;16.974;2022-12-15T00:25:14;792.9;;;-146.1;100.0
45864;BME280;31579;52.354;16.974;2022-12-15T00:26:17;799.3;;;-146.1;100.0
45864;BME280;31579;52.354;16.974;2022-12-15T00:27:20;800.6;;;-146.1;100.0
45864;BME280;31579;52.354;16.974;2022-12-15T00:28:22;801.9;;;-146.1;100.0
45864;BME280;31579;52.354;16.974;2022-12-15T00:29:26;802.9;;;-146.1;100.0
45864;BME280;31579;52.354;16.974;2022-12-15T00:30:28;804.1;;;-146.1;100.0
45864;BME280;31579;52.354;16.974;2022-12-15T00:31:32;803.6;;;-146.1;100.0
45864;BME280;31579;52.354;16.974;2022-12-15T00:32:34;802.6;;;-146.1;100.0
45864;BME280;31579;52.354;16.974;2022-12-15T00:33:37;805.3;;;-146.1;100.0
45864;BME280;31579;52.354;16.974;2022-12-15T00:34:41;805.6;;;-146.1;100.0
45864;BME280;31579;52.354;16.974;2022-12-15T00:35:44;807.2;;;-146.1;100.0
45864;BME280;31579;52.354;16.974;2022-12-15T00:36:46;808.5;;;-146.1;100.0
45864;BME280;31579;52.354;16.974;2022-12-15T00:37:50;809.1;;;-146.1;100.0
45864;BME280;31579;52.354;16.974;2022-12-15T00:38:52;809.4;;;-146.1;100.0
45864;BME280;31579;52.354;16.974;2022-12-15T00:39:56;809.8;;;-146.1;100.0
45864;BME280;31579;52.354;16.974;2022-12-15T00:41:00;809.9;;;-146.1;100.0
45864;BME280;31579;52.354;16.974;2022-12-15T00:42:01;789.7;;;-146.1;100.0
45864;BME280;31579;52.354;16.974;2022-12-15T00:43:05;802.8;;;-146.1;100.0
45864;BME280;31579;52.354;16.974;2022-12-15T00:44:07;812.3;;;-146.1;100.0
45864;BME280;31579;52.354;16.974;2022-12-15T00:45:10;794.9;;;-146.1;100.0
45864;BME280;31579;52.354;16.974;2022-12-15T00:46:14;808.8;;;-146.1;100.0
45864;BME280;31579;52.354;16.974;2022-12-15T00:47:17;818.1;;;-146.1;100.0
45864;BME280;31579;52.354;16.974;2022-12-15T00:48:20;822.2;;;-146.1;100.0
45864;BME280;31579;52.354;16.974;2022-12-15T00:49:25;823.6;;;-146.1;100.0
45864;BME280;31579;52.354;16.974;2022-12-15T00:50:27;824.8;;;-146.1;100.0
45864;BME280;31579;52.354;16.974;2022-12-15T00:51:30;826.0;;;-146.1;100.0
45864;BME280;31579;52.354;16.974;2022-12-15T00:52:32;826.1;;;-146.1;100.0
45864;BME280;31579;52.354;16.974;2022-12-15T00:53:35;826.0;;;-146.1;100.0
45864;BME280;31579;52.354;16.974;2022-12-15T00:54:38;827.1;;;-146.1;100.0
45864;BME280;31579;52.354;16.974;2022-12-15T00:55:41;827.6;;;-146.1;100.0
45864;BME280;31579;52.354;16.974;2022-12-15T00:56:45;828.2;;;-146.1;100.0
45864;BME280;31579;52.354;16.974;2022-12-15T00:57:48;828.6;;;-146.1;100.0
45864;BME280;31579;52.354;16.974;2022-12-15T00:58:51;828.4;;;-146.1;100.0
45864;BME280;31579;52.354;16.974;2022-12-15T00:59:53;828.3;;;-146.1;100.0
45864;BME280;31579;52.354;16.974;2022-12-15T01:00:56;828.9;;;-146.1;100.0
45864;BME280;31579;52.354;16.974;2022-12-15T01:02:00;829.7;;;-146.1;100.0
45864;BME280;31579;52.354;16.974;2022-12-15T01:04:05;831.4;;;-146.1;100.0
45864;BME280;31579;52.354;16.974;2022-12-15T01:05:08;832.0;;;-146.1;100.0
45864;BME280;31579;52.354;16.974;2022-12-15T01:06:13;833.8;;;-146.1;100.0
45864;BME280;31579;52.354;16.974;2022-12-15T01:07:15;835.0;;;-146.1;100.0
45864;BME280;31579;52.354;16.974;2022-12-15T01:08:18;837.1;;;-146.1;100.0
45864;BME280;31579;52.354;16.974;2022-12-15T01:09:21;838.4;;;-146.1;100.0
45864;BME280;31579;52.354;16.974;2022-12-15T01:10:24;839.8;;;-146.1;100.0
45864;BME280;31579;52.354;16.974;2022-12-15T01:11:27;840.5;;;-146.1;100.0
45864;BME280;31579;52.354;16.974;2022-12-15T01:12:29;841.6;;;-146.1;100.0
45864;BME280;31579;52.354;16.974;2022-12-15T01:13:33;843.5;;;-146.1;100.0
45864;BME280;31579;52.354;16.974;2022-12-15T01:14:36;843.1;;;-146.1;100.0
45864;BME280;31579;52.354;16.974;2022-12-15T01:15:40;843.8;;;-146.1;100.0
45864;BME280;31579;52.354;16.974;2022-12-15T01:16:43;844.7;;;-146.1;100.0
45864;BME280;31579;52.354;16.974;2022-12-15T01:17:46;845.7;;;-146.1;100.0
45864;BME280;31579;52.354;16.974;2022-12-15T01:18:49;844.9;;;-146.1;100.0
45864;BME280;31579;52.354;16.974;2022-12-15T01:19:53;845.6;;;-146.1;100.0
45864;BME280;31579;52.354;16.974;2022-12-15T01:20:57;845.6;;;-146.1;100.0
45864;BME280;31579;52.354;16.974;2022-12-15T01:21:59;846.0;;;-146.1;100.0
45864;BME280;31579;52.354;16.974;2022-12-15T01:23:10;851.6;;;-146.1;100.0
45864;BME280;31579;52.354;16.974;2022-12-15T01:24:13;858.9;;;-146.1;100.0
45864;BME280;31579;52.354;16.974;2022-12-15T01:25:16;845.9;;;-146.1;100.0
45864;BME280;31579;52.354;16.974;2022-12-15T01:26:19;840.8;;;-146.1;100.0
45864;BME280;31579;52.354;16.974;2022-12-15T01:27:22;838.3;;;-146.1;100.0
45864;BME280;31579;52.354;16.974;2022-12-15T01:28:25;836.6;;;-146.1;100.0
45864;BME280;31579;52.354;16.974;2022-12-15T01:29:28;835.8;;;-146.1;100.0
45864;BME280;31579;52.354;16.974;2022-12-15T01:30:31;836.1;;;-146.1;100.0
45864;BME280;31579;52.354;16.974;2022-12-15T01:31:34;835.1;;;-146.1;100.0
45864;BME280;31579;52.354;16.974;2022-12-15T01:32:37;835.3;;;-146.1;100.0
45864;BME280;31579;52.354;16.974;2022-12-15T01:33:40;837.0;;;-146.1;100.0
45864;BME280;31579;52.354;16.974;2022-12-15T01:34:43;837.3;;;-146.1;100.0
45864;BME280;31579;52.354;16.974;2022-12-15T01:36:49;838.0;;;-146.1;100.0
45864;BME280;31579;52.354;16.974;2022-12-15T01:37:52;837.6;;;-146.1;100.0
45864;BME280;31579;52.354;16.974;2022-12-15T01:38:55;836.8;;;-146.1;100.0
45864;BME280;31579;52.354;16.974;2022-12-15T01:39:58;836.9;;;-146.1;100.0
45864;BME280;31579;52.354;16.974;2022-12-15T01:41:03;851.0;;;-146.1;100.0
45864;BME280;31579;52.354;16.974;2022-12-15T01:42:05;843.6;;;-146.1;100.0
45864;BME280;31579;52.354;16.974;2022-12-15T01:43:16;898.9;;;-146.1;100.0
45864;BME280;31579;52.354;16.974;2022-12-15T01:44:20;877.4;;;-146.1;100.0
45864;BME280;31579;52.354;16.974;2022-12-15T01:45:33;840.5;;;-146.1;100.0
45864;BME280;31579;52.354;16.974;2022-12-15T01:46:24;826.8;;;-146.1;100.0
45864;BME280;31579;52.354;16.974;2022-12-15T01:47:27;821.6;;;-146.1;100.0
45864;BME280;31579;52.354;16.974;2022-12-15T01:49:35;817.9;;;-146.1;100.0
45864;BME280;31579;52.354;16.974;2022-12-15T01:50:42;817.5;;;-146.1;100.0
45864;BME280;31579;52.354;16.974;2022-12-15T01:51:43;817.3;;;-146.1;100.0
45864;BME280;31579;52.354;16.974;2022-12-15T01:52:45;818.8;;;-146.1;100.0
45864;BME280;31579;52.354;16.974;2022-12-15T01:54:52;819.9;;;-146.1;100.0
45864;BME280;31579;52.354;16.974;2022-12-15T01:55:54;821.0;;;-146.1;100.0
45864;BME280;31579;52.354;16.974;2022-12-15T01:56:59;819.1;;;-146.1;100.0
45864;BME280;31579;52.354;16.974;2022-12-15T01:58:01;819.7;;;-146.1;100.0
45864;BME280;31579;52.354;16.974;2022-12-15T01:59:03;820.6;;;-146.1;100.0
45864;BME280;31579;52.354;16.974;2022-12-15T02:00:07;820.6;;;-146.1;100.0
45864;BME280;31579;52.354;16.974;2022-12-15T02:01:11;835.0;;;-146.1;100.0
45864;BME280;31579;52.354;16.974;2022-12-15T02:02:14;830.5;;;-146.1;100.0
45864;BME280;31579;52.354;16.974;2022-12-15T02:03:17;823.8;;;-146.1;100.0
45864;BME280;31579;52.354;16.974;2022-12-15T02:04:20;821.1;;;-146.1;100.0
45864;BME280;31579;52.354;16.974;2022-12-15T02:05:23;820.9;;;-146.1;100.0
45864;BME280;31579;52.354;16.974;2022-12-15T02:06:26;821.3;;;-146.1;100.0
45864;BME280;31579;52.354;16.974;2022-12-15T02:07:30;820.2;;;-146.1;100.0
45864;BME280;31579;52.354;16.974;2022-12-15T02:08:33;821.5;;;-146.1;100.0
45864;BME280;31579;52.354;16.974;2022-12-15T02:09:37;820.6;;;-146.1;100.0
45864;BME280;31579;52.354;16.974;2022-12-15T02:12:51;822.9;;;-146.1;100.0
45864;BME280;31579;52.354;16.974;2022-12-15T02:15:58;821.5;;;-146.1;100.0
45864;BME280;31579;52.354;16.974;2022-12-15T02:21:14;822.3;;;-146.1;100.0
45864;BME280;31579;52.354;16.974;2022-12-15T02:31:46;823.9;;;-146.1;100.0
45864;BME280;31579;52.354;16.974;2022-12-15T02:33:51;823.6;;;-146.1;100.0
45864;BME280;31579;52.354;16.974;2022-12-15T02:35:55;822.7;;;-146.1;100.0
45864;BME280;31579;52.354;16.974;2022-12-15T02:37:00;824.9;;;-146.1;100.0
45864;BME280;31579;52.354;16.974;2022-12-15T02:37:59;825.0;;;-146.1;100.0
45864;BME280;31579;52.354;16.974;2022-12-15T02:39:01;803.9;;;-146.1;100.0
45864;BME280;31579;52.354;16.974;2022-12-15T02:40:06;816.0;;;-146.1;100.0
45864;BME280;31579;52.354;16.974;2022-12-15T02:42:11;825.6;;;-146.1;100.0
45864;BME280;31579;52.354;16.974;2022-12-15T02:43:14;826.1;;;-146.1;100.0
45864;BME280;31579;52.354;16.974;2022-12-15T02:46:26;824.8;;;-146.1;100.0
45864;BME280;31579;52.354;16.974;2022-12-15T03:00:07;820.8;;;-146.1;100.0
45864;BME280;31579;52.354;16.974;2022-12-15T03:02:11;822.2;;;-146.1;100.0
45864;BME280;31579;52.354;16.974;2022-12-15T03:03:14;821.9;;;-146.1;100.0
45864;BME280;31579;52.354;16.974;2022-12-15T03:04:17;822.4;;;-146.1;100.0
45864;BME280;31579;52.354;16.974;2022-12-15T03:05:20;822.7;;;-146.1;100.0
45864;BME280;31579;52.354;16.974;2022-12-15T03:06:23;822.5;;;-146.1;100.0
45864;BME280;31579;52.354;16.974;2022-12-15T03:07:26;821.9;;;-146.1;100.0
45864;BME280;31579;52.354;16.974;2022-12-15T03:08:29;823.2;;;-146.1;100.0
45864;BME280;31579;52.354;16.974;2022-12-15T03:09:32;824.3;;;-146.1;100.0
45864;BME280;31579;52.354;16.974;2022-12-15T03:10:35;825.7;;;-146.1;100.0
45864;BME280;31579;52.354;16.974;2022-12-15T03:11:38;825.9;;;-146.1;100.0
45864;BME280;31579;52.354;16.974;2022-12-15T03:12:41;826.6;;;-146.1;100.0
45864;BME280;31579;52.354;16.974;2022-12-15T03:13:44;825.6;;;-146.1;100.0
45864;BME280;31579;52.354;16.974;2022-12-15T03:14:47;825.3;;;-146.1;100.0
45864;BME280;31579;52.354;16.974;2022-12-15T03:15:50;826.7;;;-146.1;100.0
45864;BME280;31579;52.354;16.974;2022-12-15T03:16:53;827.4;;;-146.1;100.0
45864;BME280;31579;52.354;16.974;2022-12-15T03:17:56;827.0;;;-146.1;100.0
45864;BME280;31579;52.354;16.974;2022-12-15T03:18:59;827.0;;;-146.1;100.0
45864;BME280;31579;52.354;16.974;2022-12-15T03:20:01;805.0;;;-146.1;100.0
45864;BME280;31579;52.354;16.974;2022-12-15T03:21:04;818.4;;;-146.1;100.0
45864;BME280;31579;52.354;16.974;2022-12-15T03:22:07;824.7;;;-146.1;100.0
45864;BME280;31579;52.354;16.974;2022-12-15T03:23:11;842.4;;;-146.1;100.0
45864;BME280;31579;52.354;16.974;2022-12-15T03:24:14;837.6;;;-146.1;100.0
45864;BME280;31579;52.354;16.974;2022-12-15T03:25:17;830.4;;;-146.1;100.0
45864;BME280;31579;52.354;16.974;2022-12-15T03:26:20;827.3;;;-146.1;100.0
45864;BME280;31579;52.354;16.974;2022-12-15T03:27:24;826.4;;;-146.1;100.0
45864;BME280;31579;52.354;16.974;2022-12-15T03:28:27;826.3;;;-146.1;100.0
45864;BME280;31579;52.354;16.974;2022-12-15T03:29:30;825.6;;;-146.1;100.0
45864;BME280;31579;52.354;16.974;2022-12-15T03:30:33;826.1;;;-146.1;100.0
45864;BME280;31579;52.354;16.974;2022-12-15T03:31:36;827.4;;;-146.1;100.0
45864;BME280;31579;52.354;16.974;2022-12-15T03:32:39;827.5;;;-146.1;100.0
45864;BME280;31579;52.354;16.974;2022-12-15T03:33:42;827.3;;;-146.1;100.0
45864;BME280;31579;52.354;16.974;2022-12-15T03:34:53;867.0;;;-146.1;100.0
45864;BME280;31579;52.354;16.974;2022-12-15T03:35:56;852.8;;;-146.1;100.0
45864;BME280;31579;52.354;16.974;2022-12-15T03:36:59;835.7;;;-146.1;100.0
45864;BME280;31579;52.354;16.974;2022-12-15T03:38:02;829.1;;;-146.1;100.0
45864;BME280;31579;52.354;16.974;2022-12-15T03:39:05;827.5;;;-146.1;100.0
45864;BME280;31579;52.354;16.974;2022-12-15T03:40:08;827.8;;;-146.1;100.0
45864;BME280;31579;52.354;16.974;2022-12-15T03:41:11;829.5;;;-146.1;100.0
45864;BME280;31579;52.354;16.974;2022-12-15T03:42:14;829.9;;;-146.1;100.0
45864;BME280;31579;52.354;16.974;2022-12-15T03:43:17;830.7;;;-146.1;100.0
45864;BME280;31579;52.354;16.974;2022-12-15T03:44:21;831.2;;;-146.1;100.0
45864;BME280;31579;52.354;16.974;2022-12-15T03:45:25;830.6;;;-146.1;100.0
45864;BME280;31579;52.354;16.974;2022-12-15T03:46:27;832.3;;;-146.1;100.0
45864;BME280;31579;52.354;16.974;2022-12-15T03:47:30;831.7;;;-146.1;100.0
45864;BME280;31579;52.354;16.974;2022-12-15T03:48:34;831.4;;;-146.1;100.0
45864;BME280;31579;52.354;16.974;2022-12-15T03:49:37;831.7;;;-146.1;100.0
45864;BME280;31579;52.354;16.974;2022-12-15T03:50:40;832.1;;;-146.1;100.0
45864;BME280;31579;52.354;16.974;2022-12-15T03:51:43;831.2;;;-146.1;100.0
45864;BME280;31579;52.354;16.974;2022-12-15T03:53:02;880.3;;;-146.1;100.0
45864;BME280;31579;52.354;16.974;2022-12-15T03:54:04;858.9;;;-146.1;100.0
45864;BME280;31579;52.354;16.974;2022-12-15T03:55:10;836.3;;;-146.1;100.0
45864;BME280;31579;52.354;16.974;2022-12-15T03:56:11;829.2;;;-146.1;100.0
45864;BME280;31579;52.354;16.974;2022-12-15T03:57:14;825.6;;;-146.1;100.0
45864;BME280;31579;52.354;16.974;2022-12-15T03:58:17;825.7;;;-146.1;100.0
45864;BME280;31579;52.354;16.974;2022-12-15T03:59:20;826.6;;;-146.1;100.0
45864;BME280;31579;52.354;16.974;2022-12-15T04:00:23;825.9;;;-146.1;100.0
45864;BME280;31579;52.354;16.974;2022-12-15T04:01:27;826.4;;;-146.1;100.0
45864;BME280;31579;52.354;16.974;2022-12-15T04:02:30;824.4;;;-146.1;100.0
45864;BME280;31579;52.354;16.974;2022-12-15T04:03:01;838.2;;;-146.1;100.0
45864;BME280;31579;52.354;16.974;2022-12-15T04:04:04;829.7;;;-146.1;100.0
45864;BME280;31579;52.354;16.974;2022-12-15T04:05:08;827.2;;;-146.1;100.0
45864;BME280;31579;52.354;16.974;2022-12-15T04:06:10;826.9;;;-146.1;100.0
45864;BME280;31579;52.354;16.974;2022-12-15T04:07:14;824.9;;;-146.1;100.0
45864;BME280;31579;52.354;16.974;2022-12-15T04:08:17;825.5;;;-146.1;100.0
45864;BME280;31579;52.354;16.974;2022-12-15T04:09:20;825.8;;;-146.1;100.0
45864;BME280;31579;52.354;16.974;2022-12-15T04:10:24;826.1;;;-146.1;100.0
45864;BME280;31579;52.354;16.974;2022-12-15T04:11:26;826.5;;;-146.1;100.0
45864;BME280;31579;52.354;16.974;2022-12-15T04:12:29;826.3;;;-146.1;100.0
45864;BME280;31579;52.354;16.974;2022-12-15T04:13:32;824.8;;;-146.1;100.0
45864;BME280;31579;52.354;16.974;2022-12-15T04:14:35;824.3;;;-146.1;100.0
45864;BME280;31579;52.354;16.974;2022-12-15T04:15:39;823.7;;;-146.1;100.0
45864;BME280;31579;52.354;16.974;2022-12-15T04:16:41;824.1;;;-146.1;100.0
45864;BME280;31579;52.354;16.974;2022-12-15T04:17:44;824.0;;;-146.1;100.0
45864;BME280;31579;52.354;16.974;2022-12-15T04:18:47;825.4;;;-146.1;100.0
45864;BME280;31579;52.354;16.974;2022-12-15T04:19:50;826.3;;;-146.1;100.0
45864;BME280;31579;52.354;16.974;2022-12-15T04:20:53;827.0;;;-146.1;100.0
45864;BME280;31579;52.354;16.974;2022-12-15T04:21:56;828.6;;;-146.1;100.0
45864;BME280;31579;52.354;16.974;2022-12-15T04:22:59;827.8;;;-146.1;100.0
45864;BME280;31579;52.354;16.974;2022-12-15T04:24:03;828.0;;;-146.1;100.0
45864;BME280;31579;52.354;16.974;2022-12-15T04:25:07;827.4;;;-146.1;100.0
45864;BME280;31579;52.354;16.974;2022-12-15T04:26:08;828.2;;;-146.1;100.0
45864;BME280;31579;52.354;16.974;2022-12-15T04:27:11;828.5;;;-146.1;100.0
45864;BME280;31579;52.354;16.974;2022-12-15T04:28:15;829.2;;;-146.1;100.0
45864;BME280;31579;52.354;16.974;2022-12-15T04:29:17;828.8;;;-146.1;100.0
45864;BME280;31579;52.354;16.974;2022-12-15T04:30:20;827.8;;;-146.1;100.0
45864;BME280;31579;52.354;16.974;2022-12-15T04:32:26;826.9;;;-146.1;100.0
45864;BME280;31579;52.354;16.974;2022-12-15T04:33:29;828.9;;;-146.1;100.0
45864;BME280;31579;52.354;16.974;2022-12-15T04:34:32;830.3;;;-146.1;100.0
45864;BME280;31579;52.354;16.974;2022-12-15T04:35:35;831.2;;;-146.1;100.0
45864;BME280;31579;52.354;16.974;2022-12-15T04:36:39;829.7;;;-146.1;100.0
45864;BME280;31579;52.354;16.974;2022-12-15T04:37:41;829.7;;;-146.1;100.0
45864;BME280;31579;52.354;16.974;2022-12-15T04:38:44;829.3;;;-146.1;100.0
45864;BME280;31579;52.354;16.974;2022-12-15T04:39:48;830.1;;;-146.1;100.0
45864;BME280;31579;52.354;16.974;2022-12-15T04:40:50;827.6;;;-146.1;100.0
45864;BME280;31579;52.354;16.974;2022-12-15T04:41:53;828.3;;;-146.1;100.0
45864;BME280;31579;52.354;16.974;2022-12-15T04:42:56;829.3;;;-146.1;100.0
45864;BME280;31579;52.354;16.974;2022-12-15T04:43:59;829.0;;;-146.1;100.0
45864;BME280;31579;52.354;16.974;2022-12-15T04:45:03;830.4;;;-146.1;100.0
45864;BME280;31579;52.354;16.974;2022-12-15T04:46:05;830.3;;;-146.1;100.0
45864;BME280;31579;52.354;16.974;2022-12-15T04:47:08;830.4;;;-146.1;100.0
45864;BME280;31579;52.354;16.974;2022-12-15T04:48:11;829.0;;;-146.1;100.0
45864;BME280;31579;52.354;16.974;2022-12-15T04:49:14;829.4;;;-146.1;100.0
45864;BME280;31579;52.354;16.974;2022-12-15T04:50:17;829.9;;;-146.1;100.0
45864;BME280;31579;52.354;16.974;2022-12-15T04:51:21;828.1;;;-146.1;100.0
45864;BME280;31579;52.354;16.974;2022-12-15T04:52:24;828.3;;;-146.1;100.0
45864;BME280;31579;52.354;16.974;2022-12-15T04:53:27;828.5;;;-146.1;100.0
45864;BME280;31579;52.354;16.974;2022-12-15T04:54:30;828.4;;;-146.1;100.0
45864;BME280;31579;52.354;16.974;2022-12-15T04:55:34;828.1;;;-146.1;100.0
45864;BME280;31579;52.354;16.974;2022-12-15T04:56:36;829.2;;;-146.1;100.0
45864;BME280;31579;52.354;16.974;2022-12-15T04:57:39;829.1;;;-146.1;100.0
45864;BME280;31579;52.354;16.974;2022-12-15T04:58:43;830.2;;;-146.1;100.0
45864;BME280;31579;52.354;16.974;2022-12-15T04:59:45;829.7;;;-146.1;100.0
45864;BME280;31579;52.354;16.974;2022-12-15T05:00:49;830.5;;;-146.1;100.0
45864;BME280;31579;52.354;16.974;2022-12-15T05:01:51;830.0;;;-146.1;100.0
45864;BME280;31579;52.354;16.974;2022-12-15T05:02:54;830.4;;;-146.1;100.0
45864;BME280;31579;52.354;16.974;2022-12-15T05:03:57;830.9;;;-146.1;100.0
45864;BME280;31579;52.354;16.974;2022-12-15T05:05:01;845.8;;;-146.1;100.0
45864;BME280;31579;52.354;16.974;2022-12-15T05:06:05;841.1;;;-146.1;100.0
45864;BME280;31579;52.354;16.974;2022-12-15T05:07:07;833.2;;;-146.1;100.0
45864;BME280;31579;52.354;16.974;2022-12-15T05:08:10;830.6;;;-146.1;100.0
45864;BME280;31579;52.354;16.974;2022-12-15T05:09:13;830.1;;;-146.1;100.0
45864;BME280;31579;52.354;16.974;2022-12-15T05:10:16;829.2;;;-146.1;100.0
45864;BME280;31579;52.354;16.974;2022-12-15T05:11:19;830.8;;;-146.1;100.0
45864;BME280;31579;52.354;16.974;2022-12-15T05:12:22;831.8;;;-146.1;100.0
45864;BME280;31579;52.354;16.974;2022-12-15T05:13:25;830.6;;;-146.1;100.0
45864;BME280;31579;52.354;16.974;2022-12-15T05:14:28;831.6;;;-146.1;100.0
45864;BME280;31579;52.354;16.974;2022-12-15T05:15:32;832.3;;;-146.1;100.0
45864;BME280;31579;52.354;16.974;2022-12-15T05:16:34;832.0;;;-146.1;100.0
45864;BME280;31579;52.354;16.974;2022-12-15T05:17:37;832.0;;;-146.1;100.0
45864;BME280;31579;52.354;16.974;2022-12-15T05:18:40;833.1;;;-146.1;100.0
45864;BME280;31579;52.354;16.974;2022-12-15T05:19:43;833.6;;;-146.1;100.0
45864;BME280;31579;52.354;16.974;2022-12-15T05:20:46;835.1;;;-146.1;100.0
45864;BME280;31579;52.354;16.974;2022-12-15T05:21:49;833.6;;;-146.1;100.0
45864;BME280;31579;52.354;16.974;2022-12-15T05:22:56;833.9;;;-146.1;100.0
45864;BME280;31579;52.354;16.974;2022-12-15T05:23:55;833.7;;;-146.1;100.0
45864;BME280;31579;52.354;16.974;2022-12-15T05:24:59;834.8;;;-146.1;100.0
45864;BME280;31579;52.354;16.974;2022-12-15T05:26:01;811.7;;;-146.1;100.0
45864;BME280;31579;52.354;16.974;2022-12-15T05:27:04;824.9;;;-146.1;100.0
45864;BME280;31579;52.354;16.974;2022-12-15T05:28:07;832.8;;;-146.1;100.0
45864;BME280;31579;52.354;16.974;2022-12-15T05:29:11;835.6;;;-146.1;100.0
45864;BME280;31579;52.354;16.974;2022-12-15T05:30:14;836.9;;;-146.1;100.0
45864;BME280;31579;52.354;16.974;2022-12-15T05:31:17;836.6;;;-146.1;100.0
45864;BME280;31579;52.354;16.974;2022-12-15T05:32:19;837.3;;;-146.1;100.0
45864;BME280;31579;52.354;16.974;2022-12-15T05:33:23;837.3;;;-146.1;100.0
45864;BME280;31579;52.354;16.974;2022-12-15T05:34:28;837.0;;;-146.1;100.0
45864;BME280;31579;52.354;16.974;2022-12-15T05:35:28;836.7;;;-146.1;100.0
45864;BME280;31579;52.354;16.974;2022-12-15T05:36:32;835.4;;;-146.1;100.0
45864;BME280;31579;52.354;16.974;2022-12-15T05:37:35;835.0;;;-146.1;100.0
45864;BME280;31579;52.354;16.974;2022-12-15T05:38:38;835.8;;;-146.1;100.0
45864;BME280;31579;52.354;16.974;2022-12-15T05:39:41;834.2;;;-146.1;100.0
45864;BME280;31579;52.354;16.974;2022-12-15T05:40:44;833.5;;;-146.1;100.0
45864;BME280;31579;52.354;16.974;2022-12-15T05:41:47;834.2;;;-146.1;100.0
45864;BME280;31579;52.354;16.974;2022-12-15T05:42:50;833.1;;;-146.1;100.0
45864;BME280;31579;52.354;16.974;2022-12-15T05:43:53;834.1;;;-146.1;100.0
45864;BME280;31579;52.354;16.974;2022-12-15T05:44:56;833.9;;;-146.1;100.0
45864;BME280;31579;52.354;16.974;2022-12-15T05:47:03;832.7;;;-146.1;100.0
45864;BME280;31579;52.354;16.974;2022-12-15T05:48:06;834.9;;;-146.1;100.0
45864;BME280;31579;52.354;16.974;2022-12-15T05:49:10;834.1;;;-146.1;100.0
45864;BME280;31579;52.354;16.974;2022-12-15T05:50:12;833.9;;;-146.1;100.0
45864;BME280;31579;52.354;16.974;2022-12-15T05:51:15;834.6;;;-146.1;100.0
45864;BME280;31579;52.354;16.974;2022-12-15T05:52:18;835.0;;;-146.1;100.0
45864;BME280;31579;52.354;16.974;2022-12-15T05:53:21;835.7;;;-146.1;100.0
45864;BME280;31579;52.354;16.974;2022-12-15T05:54:24;836.0;;;-146.1;100.0
45864;BME280;31579;52.354;16.974;2022-12-15T05:55:27;835.8;;;-146.1;100.0
45864;BME280;31579;52.354;16.974;2022-12-15T05:56:30;836.1;;;-146.1;100.0
45864;BME280;31579;52.354;16.974;2022-12-15T05:57:33;836.7;;;-146.1;100.0
45864;BME280;31579;52.354;16.974;2022-12-15T05:58:36;837.0;;;-146.1;100.0
45864;BME280;31579;52.354;16.974;2022-12-15T05:59:39;836.9;;;-146.1;100.0
45864;BME280;31579;52.354;16.974;2022-12-15T06:00:42;837.2;;;-146.1;100.0
45864;BME280;31579;52.354;16.974;2022-12-15T06:01:45;837.8;;;-146.1;100.0
45864;BME280;31579;52.354;16.974;2022-12-15T06:02:48;838.7;;;-146.1;100.0
45864;BME280;31579;52.354;16.974;2022-12-15T06:03:51;837.8;;;-146.1;100.0
45864;BME280;31579;52.354;16.974;2022-12-15T06:04:55;837.1;;;-146.1;100.0
45864;BME280;31579;52.354;16.974;2022-12-15T06:05:58;838.7;;;-146.1;100.0
45864;BME280;31579;52.354;16.974;2022-12-15T06:07:02;857.0;;;-146.1;100.0
45864;BME280;31579;52.354;16.974;2022-12-15T06:08:05;849.3;;;-146.1;100.0
45864;BME280;31579;52.354;16.974;2022-12-15T06:09:08;843.9;;;-146.1;100.0
45864;BME280;31579;52.354;16.974;2022-12-15T06:10:11;841.3;;;-146.1;100.0
45864;BME280;31579;52.354;16.974;2022-12-15T06:11:14;841.4;;;-146.1;100.0
45864;BME280;31579;52.354;16.974;2022-12-15T06:12:17;841.8;;;-146.1;100.0
45864;BME280;31579;52.354;16.974;2022-12-15T06:13:20;843.8;;;-146.1;100.0
45864;BME280;31579;52.354;16.974;2022-12-15T06:14:23;844.4;;;-146.1;100.0
45864;BME280;31579;52.354;16.974;2022-12-15T06:15:26;843.9;;;-146.1;100.0
45864;BME280;31579;52.354;16.974;2022-12-15T06:16:29;842.9;;;-146.1;100.0
45864;BME280;31579;52.354;16.974;2022-12-15T06:17:32;843.3;;;-146.1;100.0
45864;BME280;31579;52.354;16.974;2022-12-15T06:18:35;845.1;;;-146.1;100.0
45864;BME280;31579;52.354;16.974;2022-12-15T06:19:38;845.3;;;-146.1;100.0
45864;BME280;31579;52.354;16.974;2022-12-15T06:20:41;846.5;;;-146.1;100.0